Time,TemperatureF,DewpointF,PressureIn,WindDirection,WindDirectionDegrees,WindSpeedMPH,WindSpeedGustMPH,Humidity,HourlyPrecipIn,Conditions,Clouds,dailyrainin,SolarRadiationWatts/m^2,SoftwareType,DateUTC
2013-08-26 00:22:00,52.0,43.0,-100.00,SSE,148,5.0,8.0,71,0.00,,,0.00,0.000000,,2013-08-26 07:22:00,
2013-08-26 00:32:00,52.0,43.0,-100.00,SSE,148,5.0,8.0,71,0.00,,,0.00,0.000000,,2013-08-26 07:32:00,
2013-08-26 00:42:00,52.0,43.0,-100.00,SSE,148,5.0,8.0,71,0.00,,,0.00,0.000000,,2013-08-26 07:42:00,
2013-08-26 00:52:00,52.0,43.0,-100.00,SSE,148,5.0,8.0,71,0.00,,,0.00,0.000000,,2013-08-26 07:52:00,
2013-08-26 01:22:00,52.0,43.0,-100.00,SSE,154,5.0,9.0,72,0.00,,,0.00,0.000000,,2013-08-26 08:22:00,
2013-08-26 01:32:00,52.0,43.0,-100.00,SSE,154,5.0,9.0,72,0.00,,,0.00,0.000000,,2013-08-26 08:32:00,
2013-08-26 01:42:00,52.0,43.0,-100.00,SSE,154,5.0,9.0,72,0.00,,,0.00,0.000000,,2013-08-26 08:42:00,
2013-08-26 01:52:00,52.0,43.0,-100.00,SSE,154,5.0,9.0,72,0.00,,,0.00,0.000000,,2013-08-26 08:52:00,
2013-08-26 02:43:00,53.0,44.0,-100.00,SE,143,6.0,11.0,71,0.00,,,0.00,0.000000,,2013-08-26 09:43:00,
2013-08-26 06:42:00,54.0,44.0,-100.00,SSE,156,3.0,9.0,70,-99.99,,,0.00,0.000000,,2013-08-26 13:42:00,
2013-08-26 06:52:00,54.0,44.0,-100.00,SSE,156,3.0,9.0,70,-99.99,,,0.00,0.000000,,2013-08-26 13:52:00,
2013-08-26 07:22:00,54.0,45.0,-100.00,SSE,157,7.0,12.0,72,-99.99,,,0.00,5.000000,,2013-08-26 14:22:00,
2013-08-26 07:32:00,54.0,45.0,-100.00,SSE,157,7.0,12.0,72,-99.99,,,0.00,5.000000,,2013-08-26 14:32:00,
2013-08-26 07:42:00,54.0,45.0,-100.00,SSE,157,7.0,12.0,72,-99.99,,,0.00,5.000000,,2013-08-26 14:42:00,
2013-08-26 07:56:00,58.0,48.0,-100.00,SE,127,7.0,13.0,69,-99.99,,,0.00,99.000000,,2013-08-26 14:56:00,
2013-08-26 08:56:00,59.0,48.0,-100.00,South,171,7.0,14.0,67,0.00,,,0.00,234.000000,,2013-08-26 15:56:00,
2013-08-26 09:29:00,59.0,48.0,-100.00,South,171,7.0,14.0,67,0.00,,,0.00,234.000000,,2013-08-26 16:29:00,
2013-08-26 09:36:00,59.0,48.0,-100.00,South,171,7.0,14.0,67,0.00,,,0.00,234.000000,,2013-08-26 16:36:00,
2013-08-26 09:48:00,59.0,48.0,-100.00,South,171,7.0,14.0,67,0.00,,,0.00,234.000000,,2013-08-26 16:48:00,
2013-08-26 10:24:00,61.0,47.0,-100.00,South,176,11.0,21.0,59,0.00,,,0.00,433.000000,,2013-08-26 17:24:00,
2013-08-26 10:36:00,61.0,47.0,-100.00,South,176,11.0,21.0,59,0.00,,,0.00,433.000000,,2013-08-26 17:36:00,
2013-08-26 10:43:00,61.0,47.0,-100.00,South,176,11.0,21.0,59,0.00,,,0.00,433.000000,,2013-08-26 17:43:00,
2013-08-26 10:53:00,61.0,47.0,-100.00,South,176,11.0,21.0,59,0.00,,,0.00,433.000000,,2013-08-26 17:53:00,
2013-08-26 11:21:00,66.0,48.0,-100.00,SSE,164,12.0,24.0,53,0.00,,,0.00,676.000000,,2013-08-26 18:21:00,
2013-08-26 11:32:00,66.0,48.0,-100.00,SSE,164,12.0,24.0,53,0.00,,,0.00,676.000000,,2013-08-26 18:32:00,
2013-08-26 11:42:00,66.0,48.0,-100.00,SSE,164,12.0,24.0,53,0.00,,,0.00,676.000000,,2013-08-26 18:42:00,
2013-08-26 11:52:00,66.0,48.0,-100.00,SSE,164,12.0,24.0,53,0.00,,,0.00,676.000000,,2013-08-26 18:52:00,
2013-08-26 12:22:00,69.0,45.0,-100.00,South,172,12.0,25.0,42,0.00,,,0.00,831.000000,,2013-08-26 19:22:00,
2013-08-26 12:32:00,69.0,45.0,-100.00,South,172,12.0,25.0,42,0.00,,,0.00,831.000000,,2013-08-26 19:32:00,
2013-08-26 12:42:00,69.0,45.0,-100.00,South,172,12.0,25.0,42,0.00,,,0.00,831.000000,,2013-08-26 19:42:00,
2013-08-26 12:52:00,69.0,45.0,-100.00,South,172,12.0,25.0,42,0.00,,,0.00,831.000000,,2013-08-26 19:52:00,
2013-08-26 13:21:00,72.0,41.0,-100.00,SSE,166,11.0,25.0,32,0.00,,,0.00,900.000000,,2013-08-26 20:21:00,
2013-08-26 13:32:00,72.0,41.0,-100.00,SSE,166,11.0,25.0,32,0.00,,,0.00,900.000000,,2013-08-26 20:32:00,
2013-08-26 13:42:00,72.0,41.0,-100.00,SSE,166,11.0,25.0,32,0.00,,,0.00,900.000000,,2013-08-26 20:42:00,
2013-08-26 13:52:00,72.0,41.0,-100.00,SSE,166,11.0,25.0,32,0.00,,,0.00,900.000000,,2013-08-26 20:52:00,
2013-08-26 14:22:00,71.0,37.0,-100.00,SSE,166,12.0,23.0,29,0.00,,,0.00,918.000000,,2013-08-26 21:22:00,
2013-08-26 14:35:00,71.0,37.0,-100.00,SSE,166,12.0,23.0,29,0.00,,,0.00,918.000000,,2013-08-26 21:35:00,
2013-08-26 14:44:00,71.0,37.0,-100.00,SSE,166,12.0,23.0,29,0.00,,,0.00,918.000000,,2013-08-26 21:44:00,
2013-08-26 14:54:00,71.0,37.0,-100.00,SSE,166,12.0,23.0,29,0.00,,,0.00,918.000000,,2013-08-26 21:54:00,
2013-08-26 15:26:00,74.0,39.0,-100.00,South,182,9.0,21.0,28,0.00,,,0.00,877.000000,,2013-08-26 22:26:00,
2013-08-26 15:34:00,74.0,39.0,-100.00,South,182,9.0,21.0,28,0.00,,,0.00,877.000000,,2013-08-26 22:34:00,
2013-08-26 15:42:00,74.0,39.0,-100.00,South,182,9.0,21.0,28,0.00,,,0.00,877.000000,,2013-08-26 22:42:00,
2013-08-26 15:53:00,74.0,39.0,-100.00,South,182,9.0,21.0,28,0.00,,,0.00,877.000000,,2013-08-26 22:53:00,
2013-08-26 16:22:00,72.0,34.0,-100.00,SSE,165,11.0,20.0,25,0.00,,,0.00,798.000000,,2013-08-26 23:22:00,
2013-08-26 16:34:00,72.0,34.0,-100.00,SSE,165,11.0,20.0,25,0.00,,,0.00,798.000000,,2013-08-26 23:34:00,
2013-08-26 16:42:00,72.0,34.0,-100.00,SSE,165,11.0,20.0,25,0.00,,,0.00,798.000000,,2013-08-26 23:42:00,
2013-08-26 16:52:00,72.0,34.0,-100.00,SSE,165,11.0,20.0,25,0.00,,,0.00,798.000000,,2013-08-26 23:52:00,
2013-08-26 17:21:00,71.0,33.0,-100.00,SSE,160,10.0,19.0,25,0.00,,,0.00,645.000000,,2013-08-27 00:21:00,
2013-08-26 17:32:00,71.0,33.0,-100.00,SSE,160,10.0,19.0,25,0.00,,,0.00,645.000000,,2013-08-27 00:32:00,
2013-08-26 17:42:00,71.0,33.0,-100.00,SSE,160,10.0,19.0,25,0.00,,,0.00,645.000000,,2013-08-27 00:42:00,
2013-08-26 17:52:00,71.0,33.0,-100.00,SSE,160,10.0,19.0,25,0.00,,,0.00,645.000000,,2013-08-27 00:52:00,
2013-08-26 18:21:00,70.0,30.0,-100.00,SSW,204,7.0,15.0,23,0.00,,,0.00,463.000000,,2013-08-27 01:21:00,
2013-08-26 18:32:00,70.0,30.0,-100.00,SSW,204,7.0,15.0,23,0.00,,,0.00,463.000000,,2013-08-27 01:32:00,
2013-08-26 18:42:00,70.0,30.0,-100.00,SSW,204,7.0,15.0,23,0.00,,,0.00,463.000000,,2013-08-27 01:42:00,
2013-08-26 18:52:00,70.0,30.0,-100.00,SSW,204,7.0,15.0,23,0.00,,,0.00,463.000000,,2013-08-27 01:52:00,
2013-08-26 19:21:00,67.0,34.0,-100.00,SSW,198,6.0,15.0,29,0.00,,,0.00,257.000000,,2013-08-27 02:21:00,
2013-08-26 19:32:00,67.0,34.0,-100.00,SSW,198,6.0,15.0,29,0.00,,,0.00,257.000000,,2013-08-27 02:32:00,
2013-08-26 19:42:00,67.0,34.0,-100.00,SSW,198,6.0,15.0,29,0.00,,,0.00,257.000000,,2013-08-27 02:42:00,
2013-08-26 19:52:00,67.0,34.0,-100.00,SSW,198,6.0,15.0,29,0.00,,,0.00,257.000000,,2013-08-27 02:52:00,
2013-08-26 19:56:00,60.0,30.0,-100.00,SSE,159,6.0,11.0,32,0.00,,,0.00,41.000000,,2013-08-27 02:56:00,
2013-08-26 20:22:00,60.0,30.0,-100.00,SSE,159,6.0,11.0,32,0.00,,,0.00,41.000000,,2013-08-27 03:22:00,
2013-08-26 20:36:00,60.0,30.0,-100.00,SSE,159,6.0,11.0,32,0.00,,,0.00,41.000000,,2013-08-27 03:36:00,
2013-08-26 20:44:00,60.0,30.0,-100.00,SSE,159,6.0,11.0,32,0.00,,,0.00,41.000000,,2013-08-27 03:44:00,
2013-08-26 21:29:00,58.0,34.0,-100.00,SW,234,5.0,11.0,40,0.00,,,0.00,0.000000,,2013-08-27 04:29:00,
2013-08-26 21:38:00,58.0,34.0,-100.00,SW,234,5.0,11.0,40,0.00,,,0.00,0.000000,,2013-08-27 04:38:00,
2013-08-26 21:46:00,58.0,34.0,-100.00,SW,234,5.0,11.0,40,0.00,,,0.00,0.000000,,2013-08-27 04:46:00,
2013-08-26 21:54:00,58.0,34.0,-100.00,SW,234,5.0,11.0,40,0.00,,,0.00,0.000000,,2013-08-27 04:54:00,
2013-08-26 22:23:00,58.0,36.0,-100.00,South,178,5.0,9.0,43,0.00,,,0.00,0.000000,,2013-08-27 05:23:00,
2013-08-26 22:34:00,58.0,36.0,-100.00,South,178,5.0,9.0,43,0.00,,,0.00,0.000000,,2013-08-27 05:34:00,
2013-08-26 22:43:00,58.0,36.0,-100.00,South,178,5.0,9.0,43,0.00,,,0.00,0.000000,,2013-08-27 05:43:00,
2013-08-26 22:52:00,58.0,36.0,-100.00,South,178,5.0,9.0,43,0.00,,,0.00,0.000000,,2013-08-27 05:52:00,
2013-08-26 23:22:00,56.0,36.0,-100.00,SSE,156,4.0,10.0,46,-99.99,,,0.00,0.000000,,2013-08-27 06:22:00,
2013-08-26 23:32:00,56.0,36.0,-100.00,SSE,156,4.0,10.0,46,-99.99,,,0.00,0.000000,,2013-08-27 06:32:00,
2013-08-26 23:42:00,56.0,36.0,-100.00,SSE,156,4.0,10.0,46,-99.99,,,0.00,0.000000,,2013-08-27 06:42:00,
2013-08-26 23:52:00,56.0,36.0,-100.00,SSE,156,4.0,10.0,46,-99.99,,,0.00,0.000000,,2013-08-27 06:52:00,